Time;durP1;ratioP1;P1;durP2;ratioP2;P2;SDS_P1;SDS_P2;PMS_P1;PMS_P2;Temp;Humidity;BMP_temperature;BMP_pressure;BME280_temperature;BME280_humidity;BME280_pressure;Samples;Min_cycle;Max_cycle;Signal;HPM_P1;HPM_P2
2022/04/02 00:00:44;;;;;;;1.40;0.80;;;0.50;99.90;;;;;;5091308;28;20071;-79
2022/04/02 00:03:10;;;;;;;1.40;0.90;;;0.50;99.90;;;;;;5092927;28;20039;-78
2022/04/02 00:05:36;;;;;;;1.73;0.80;;;0.40;99.90;;;;;;5094782;28;20551;-77
2022/04/02 00:08:01;;;;;;;2.03;1.17;;;0.40;99.90;;;;;;5111217;28;20125;-78
2022/04/02 00:10:27;;;;;;;2.47;1.20;;;0.40;99.90;;;;;;5111361;28;20079;-77
2022/04/02 00:12:55;;;;;;;2.60;1.70;;;0.50;99.90;;;;;;5109367;28;20082;-70
2022/04/02 00:15:22;;;;;;;2.83;1.30;;;0.50;99.90;;;;;;5109462;28;20043;-70
2022/04/02 00:17:48;;;;;;;1.95;1.38;;;0.50;99.90;;;;;;5113237;28;20074;-71
2022/04/02 00:20:14;;;;;;;1.13;0.88;;;0.60;99.90;;;;;;5111881;28;20494;-71
2022/04/02 00:23:35;;;;;;;1.88;1.17;;;0.50;99.90;;;;;;5119710;27;20130;-71
2022/04/02 00:25:25;;;;;;;2.20;1.23;;;0.50;99.90;;;;;;5124059;27;20141;-71
2022/04/02 00:27:51;;;;;;;1.50;1.10;;;0.50;99.90;;;;;;5120901;27;20044;-71
2022/04/02 00:30:16;;;;;;;1.80;1.00;;;0.40;99.90;;;;;;5106227;27;20135;-71
2022/04/02 00:32:42;;;;;;;1.33;0.90;;;0.40;99.90;;;;;;5124440;27;20289;-71
2022/04/02 00:35:09;;;;;;;1.00;0.87;;;0.50;99.90;;;;;;5116866;27;20038;-71
2022/04/02 00:37:34;;;;;;;0.98;0.80;;;0.50;99.90;;;;;;5102196;27;20043;-72
2022/04/02 00:40:00;;;;;;;1.80;1.10;;;0.50;99.90;;;;;;5120015;27;20062;-72
2022/04/02 00:42:26;;;;;;;1.60;1.33;;;0.50;99.90;;;;;;5106445;27;20310;-72
2022/04/02 00:44:52;;;;;;;1.40;0.90;;;0.50;99.90;;;;;;5128760;27;20115;-70
2022/04/02 00:47:20;;;;;;;2.45;0.98;;;0.50;99.90;;;;;;5127477;27;20042;-71
2022/04/02 00:49:46;;;;;;;2.33;0.95;;;0.50;99.90;;;;;;5127239;27;20172;-71
2022/04/02 00:52:13;;;;;;;3.90;1.98;;;0.60;99.90;;;;;;5132611;27;20039;-71
2022/04/02 00:54:40;;;;;;;2.58;1.60;;;0.70;99.90;;;;;;5121283;27;20397;-71
2022/04/02 00:57:06;;;;;;;3.47;1.95;;;0.70;99.90;;;;;;5085420;27;20043;-71
2022/04/02 00:59:32;;;;;;;4.40;2.40;;;0.80;99.90;;;;;;5112455;27;20043;-71
2022/04/02 01:01:58;;;;;;;3.55;2.10;;;0.90;99.90;;;;;;5122699;27;20054;-71
2022/04/02 01:04:24;;;;;;;4.15;2.17;;;0.90;99.90;;;;;;5102323;27;20471;-71
2022/04/02 01:06:51;;;;;;;3.55;2.17;;;1.10;99.90;;;;;;5120133;27;20539;-72
2022/04/02 01:09:17;;;;;;;3.83;2.00;;;1.10;99.90;;;;;;5112936;27;20397;-71
2022/04/02 01:11:45;;;;;;;2.60;1.50;;;1.10;99.90;;;;;;5107059;27;20051;-71
2022/04/02 01:14:11;;;;;;;3.20;1.80;;;1.10;99.90;;;;;;5127828;27;20099;-71
2022/04/02 01:16:38;;;;;;;4.13;2.10;;;1.10;99.90;;;;;;5100865;27;20101;-71
2022/04/02 01:19:04;;;;;;;;;;;1.10;99.90;;;;;;5118878;27;20032;-71
2022/04/02 01:21:30;;;;;;;4.85;2.25;;;1.10;99.90;;;;;;5118102;27;19923;-71
2022/04/02 01:23:57;;;;;;;2.50;1.90;;;1.10;99.90;;;;;;5121972;27;20087;-71
2022/04/02 01:26:23;;;;;;;;;;;1.10;99.90;;;;;;5115074;27;20059;-71
2022/04/02 01:28:57;;;;;;;2.90;1.80;;;1.10;99.90;;;;;;5103262;27;19919;-71
2022/04/02 01:31:24;;;;;;;3.17;1.67;;;1.10;99.90;;;;;;5087471;27;20095;-71
2022/04/02 01:33:53;;;;;;;2.17;1.50;;;1.00;99.90;;;;;;5130286;27;20058;-71
2022/04/02 01:36:19;;;;;;;2.85;1.60;;;1.00;99.90;;;;;;5114943;27;20047;-71
2022/04/02 01:38:45;;;;;;;;;;;1.00;99.90;;;;;;5100773;27;20046;-70
2022/04/02 01:41:12;;;;;;;2.78;1.70;;;1.00;99.90;;;;;;5118035;27;19919;-71
2022/04/02 01:43:38;;;;;;;3.55;1.80;;;0.90;99.90;;;;;;5105415;27;20478;-78
2022/04/02 01:46:05;;;;;;;2.15;1.33;;;0.90;99.90;;;;;;5121185;27;20032;-78
2022/04/02 01:48:31;;;;;;;2.28;1.42;;;0.90;99.90;;;;;;5117958;27;20486;-79
2022/04/02 01:50:57;;;;;;;;;;;0.80;99.90;;;;;;5129289;27;20216;-78
2022/04/02 01:53:24;;;;;;;3.05;1.50;;;0.80;99.90;;;;;;5106300;27;20016;-78
2022/04/02 01:55:50;;;;;;;4.60;1.90;;;0.80;99.90;;;;;;5111708;27;20039;-78
2022/04/02 01:58:16;;;;;;;2.58;1.60;;;0.90;99.90;;;;;;5120898;27;20046;-78
2022/04/02 02:00:43;;;;;;;2.58;1.38;;;0.80;99.90;;;;;;5129815;27;20035;-78
2022/04/02 02:03:09;;;;;;;1.98;1.20;;;0.80;99.90;;;;;;5103034;28;20382;-77
2022/04/02 02:05:35;;;;;;;3.63;1.60;;;0.70;99.90;;;;;;5126866;27;20035;-71
2022/04/02 02:08:03;;;;;;;2.28;1.52;;;0.70;99.90;;;;;;5118000;27;20035;-71
2022/04/02 02:10:30;;;;;;;3.15;1.90;;;0.70;99.90;;;;;;5118203;27;20107;-71
2022/04/02 02:12:56;;;;;;;5.22;2.40;;;0.70;99.90;;;;;;5128527;27;20039;-71
2022/04/02 02:15:22;;;;;;;2.88;2.05;;;0.80;99.90;;;;;;5127253;27;20530;-71
2022/04/02 02:17:49;;;;;;;6.45;2.22;;;0.90;99.90;;;;;;5112927;27;20051;-71
2022/04/02 02:20:16;;;;;;;2.38;1.83;;;1.00;99.90;;;;;;5102078;27;20139;-71
2022/04/02 02:22:44;;;;;;;6.05;2.22;;;1.10;99.90;;;;;;5118288;27;20524;-71
2022/04/02 02:25:12;;;;;;;3.15;1.60;;;1.10;99.90;;;;;;5098170;28;20071;-71
2022/04/02 02:27:39;;;;;;;3.75;1.60;;;1.10;99.90;;;;;;5087014;28;20455;-71
2022/04/02 02:30:06;;;;;;;2.95;1.45;;;1.00;99.90;;;;;;5074303;28;20044;-71
2022/04/02 02:32:36;;;;;;;2.25;1.30;;;1.00;99.90;;;;;;5090106;28;20095;-71
2022/04/02 02:38:20;;;;;;;2.50;1.25;;;0.90;99.90;;;;;;5099953;28;20059;-72
2022/04/02 02:40:48;;;;;;;2.50;1.17;;;0.80;99.90;;;;;;5094357;28;20051;-70
2022/04/02 02:43:15;;;;;;;2.42;1.50;;;0.70;99.90;;;;;;5098000;28;20046;-70
2022/04/02 02:45:41;;;;;;;;;;;0.60;99.90;;;;;;5085453;28;20040;-71
2022/04/02 02:48:07;;;;;;;1.48;0.90;;;0.50;99.90;;;;;;5102433;28;20002;-70
2022/04/02 02:50:33;;;;;;;1.15;0.90;;;0.40;99.90;;;;;;5102012;28;20123;-70
2022/04/02 02:52:59;;;;;;;1.10;0.60;;;0.30;99.90;;;;;;5100825;28;20708;-71
2022/04/02 02:55:25;;;;;;;1.25;0.85;;;0.20;99.90;;;;;;5097218;28;20470;-71
2022/04/02 02:57:51;;;;;;;0.85;0.70;;;0.10;99.90;;;;;;5096751;28;20086;-70
2022/04/02 03:00:19;;;;;;;0.80;0.60;;;0.00;99.90;;;;;;5088336;28;20041;-71
2022/04/02 03:02:46;;;;;;;1.08;0.63;;;-0.10;99.90;;;;;;5076051;28;20043;-69
2022/04/02 03:05:12;;;;;;;;;;;-0.20;99.90;;;;;;5095561;28;20075;-72
2022/04/02 03:07:41;;;;;;;0.80;0.57;;;-0.30;99.90;;;;;;5102275;28;19920;-72
2022/04/02 03:10:07;;;;;;;1.45;0.68;;;-0.40;99.90;;;;;;5106682;28;20490;-71
2022/04/02 03:12:34;;;;;;;1.33;0.70;;;-0.40;99.90;;;;;;5082048;28;20044;-71
2022/04/02 03:15:01;;;;;;;1.33;0.77;;;-0.50;99.90;;;;;;5095956;28;20371;-69
2022/04/02 03:17:30;;;;;;;1.30;0.80;;;-0.60;99.90;;;;;;5081406;28;20593;-71
2022/04/02 03:19:56;;;;;;;0.88;0.60;;;-0.60;99.90;;;;;;5098133;28;20523;-71
2022/04/02 03:22:21;;;;;;;0.95;0.60;;;-0.70;99.90;;;;;;5103790;27;20130;-72
2022/04/02 03:24:47;;;;;;;0.77;0.60;;;-0.70;99.90;;;;;;5106339;27;20092;-71
2022/04/02 03:27:13;;;;;;;1.00;0.73;;;-0.80;99.90;;;;;;5124252;27;20032;-71
2022/04/02 03:29:39;;;;;;;0.80;0.60;;;-0.80;99.90;;;;;;5121762;27;20042;-70
2022/04/02 03:32:05;;;;;;;1.20;0.77;;;-0.80;99.90;;;;;;5067211;27;20284;-71
2022/04/02 03:34:31;;;;;;;0.90;0.60;;;-0.90;99.90;;;;;;5120732;27;20488;-71
2022/04/02 03:36:57;;;;;;;0.80;0.60;;;-0.90;99.90;;;;;;5093026;27;20049;-71
2022/04/02 03:39:22;;;;;;;0.93;0.77;;;-0.90;99.90;;;;;;5108521;27;20058;-71
2022/04/02 03:41:49;;;;;;;0.85;0.52;;;-1.00;99.90;;;;;;5121813;27;20055;-71
2022/04/02 03:44:15;;;;;;;1.20;0.73;;;-1.00;99.90;;;;;;5087275;27;20059;-72
2022/04/02 03:49:26;;;;;;;0.88;0.60;;;-1.10;99.90;;;;;;5117551;27;20057;-70
2022/04/02 03:51:52;;;;;;;0.52;0.40;;;-1.10;99.90;;;;;;5111229;28;20040;-70
2022/04/02 03:54:18;;;;;;;0.93;0.70;;;-1.10;99.90;;;;;;5111619;27;20045;-70
2022/04/02 03:56:44;;;;;;;;;;;-1.00;99.90;;;;;;5120846;27;20042;-79
2022/04/02 03:59:11;;;;;;;2.50;0.90;;;-0.90;99.90;;;;;;5098069;28;19923;-78
2022/04/02 04:01:38;;;;;;;1.90;1.13;;;-0.90;99.90;;;;;;5124551;28;20082;-79
2022/04/02 04:04:04;;;;;;;2.80;1.30;;;-0.80;99.90;;;;;;5131291;28;20088;-79
2022/04/02 04:06:31;;;;;;;1.60;0.98;;;-0.60;99.90;;;;;;5119465;28;20063;-78
2022/04/02 04:08:58;;;;;;;1.73;1.08;;;-0.50;99.90;;;;;;5119936;28;20134;-79
2022/04/02 04:11:27;;;;;;;1.25;0.90;;;-0.40;99.90;;;;;;5085627;28;20474;-79
2022/04/02 04:13:53;;;;;;;3.08;1.15;;;-0.50;99.90;;;;;;5082335;28;20037;-79
2022/04/02 04:16:20;;;;;;;2.25;1.13;;;-0.50;99.90;;;;;;5126120;28;20073;-80
2022/04/02 04:18:46;;;;;;;2.28;1.10;;;-0.40;99.90;;;;;;5132109;28;20062;-79
2022/04/02 04:21:14;;;;;;;2.97;0.90;;;-0.40;99.90;;;;;;5112018;28;20028;-79
2022/04/02 04:23:44;;;;;;;1.40;0.77;;;-0.50;99.90;;;;;;5124127;28;20518;-79
2022/04/02 04:26:11;;;;;;;1.45;0.75;;;-0.40;99.90;;;;;;5115136;28;20088;-79
2022/04/02 04:28:37;;;;;;;4.35;1.25;;;-0.50;99.90;;;;;;5100559;28;20482;-79
2022/04/02 04:31:04;;;;;;;2.47;1.02;;;-0.40;99.90;;;;;;5101757;28;20526;-80
2022/04/02 04:33:30;;;;;;;2.17;1.00;;;-0.40;99.90;;;;;;5080791;28;20059;-79
2022/04/02 04:35:57;;;;;;;2.72;1.25;;;-0.20;99.90;;;;;;5132080;28;20051;-79
2022/04/02 04:38:23;;;;;;;3.10;1.45;;;-0.10;99.90;;;;;;5110810;28;20036;-78
2022/04/02 04:40:48;;;;;;;3.67;1.40;;;-0.10;99.90;;;;;;5102075;28;20168;-78
2022/04/02 04:43:14;;;;;;;3.78;1.40;;;0.00;99.90;;;;;;5098782;28;20084;-78
2022/04/02 04:45:40;;;;;;;1.83;1.23;;;0.10;99.90;;;;;;5115144;28;20039;-78
2022/04/02 04:48:06;;;;;;;2.77;1.27;;;0.30;99.90;;;;;;5120685;28;20276;-78
2022/04/02 04:50:32;;;;;;;3.67;1.55;;;0.40;99.90;;;;;;5102340;28;20289;-79
2022/04/02 04:52:58;;;;;;;3.70;1.92;;;0.50;99.90;;;;;;5081830;28;20062;-79
2022/04/02 04:55:23;;;;;;;3.70;1.55;;;0.70;99.90;;;;;;5112417;28;20946;-79
2022/04/02 04:57:49;;;;;;;3.97;1.67;;;0.70;99.90;;;;;;5129541;28;20046;-79
2022/04/02 05:00:15;;;;;;;5.35;1.85;;;0.80;99.90;;;;;;5128257;28;20448;-79
2022/04/02 05:02:44;;;;;;;3.88;2.00;;;1.00;99.90;;;;;;5109149;28;20144;-79
2022/04/02 05:05:14;;;;;;;4.57;1.90;;;1.10;99.90;;;;;;5131736;27;20041;-79
2022/04/02 05:07:43;;;;;;;3.50;1.80;;;1.20;99.90;;;;;;5120880;27;20035;-78
2022/04/02 05:10:10;;;;;;;3.42;1.70;;;1.20;99.90;;;;;;5103972;28;20070;-77
2022/04/02 05:12:37;;;;;;;3.90;1.88;;;1.30;99.90;;;;;;5132908;27;20035;-78
2022/04/02 05:15:05;;;;;;;3.40;2.00;;;1.20;99.90;;;;;;5134243;27;20074;-77
2022/04/02 05:17:31;;;;;;;3.45;2.00;;;1.20;99.90;;;;;;5129915;27;20096;-78
2022/04/02 05:19:57;;;;;;;2.85;1.70;;;1.30;99.90;;;;;;5134485;27;20039;-79
2022/04/02 05:22:23;;;;;;;4.22;1.75;;;1.30;99.90;;;;;;5111129;28;21722;-78
2022/04/02 05:24:49;;;;;;;2.45;1.42;;;1.30;99.90;;;;;;5109983;28;20059;-79
2022/04/02 05:27:15;;;;;;;3.05;1.45;;;1.20;99.90;;;;;;5077652;28;20047;-79
2022/04/02 05:29:40;;;;;;;2.80;1.20;;;1.20;99.90;;;;;;5106669;28;20039;-76
2022/04/02 05:32:07;;;;;;;2.33;1.52;;;1.20;99.90;;;;;;5106473;28;20028;-77
2022/04/02 05:34:32;;;;;;;;;;;1.20;99.90;;;;;;5103861;28;20667;-76
2022/04/02 05:36:58;;;;;;;5.72;1.83;;;1.20;99.90;;;;;;5101472;28;19931;-77
2022/04/02 05:39:24;;;;;;;1.90;1.35;;;1.10;99.90;;;;;;5099231;28;20488;-76
2022/04/02 05:41:51;;;;;;;2.80;1.80;;;1.20;99.90;;;;;;5104412;28;20036;-77
2022/04/02 05:44:17;;;;;;;3.00;1.48;;;1.20;99.90;;;;;;5106378;28;20403;-77
2022/04/02 05:46:42;;;;;;;2.45;1.15;;;1.30;99.90;;;;;;5094533;28;20044;-77
2022/04/02 05:49:08;;;;;;;2.28;1.20;;;1.30;99.90;;;;;;5092895;28;20044;-77
2022/04/02 05:51:34;;;;;;;2.45;1.30;;;1.40;99.90;;;;;;5092765;28;20043;-77
2022/04/02 05:54:00;;;;;;;3.07;1.60;;;1.50;99.90;;;;;;5095336;28;20044;-76
2022/04/02 05:56:27;;;;;;;1.52;1.30;;;1.60;99.90;;;;;;5114027;28;20316;-77
2022/04/02 05:58:54;;;;;;;2.88;1.30;;;1.70;99.90;;;;;;5113959;28;20040;-76
2022/04/02 06:01:19;;;;;;;3.25;1.70;;;1.70;99.90;;;;;;5111074;28;20367;-78
2022/04/02 06:03:47;;;;;;;3.28;1.60;;;1.80;99.90;;;;;;5094276;28;20105;-78
2022/04/02 06:06:13;;;;;;;3.90;1.75;;;1.80;99.90;;;;;;5094237;28;20037;-78
2022/04/02 06:08:39;;;;;;;;;;;1.80;99.90;;;;;;5106429;28;20072;-78
2022/04/02 06:11:08;;;;;;;2.63;1.70;;;1.90;99.90;;;;;;5131131;27;20627;-78
2022/04/02 06:13:34;;;;;;;4.82;1.80;;;1.90;99.90;;;;;;5111808;28;20158;-77
2022/04/02 06:16:00;;;;;;;4.72;2.00;;;2.00;99.90;;;;;;5105795;28;20111;-78
2022/04/02 06:18:25;;;;;;;3.20;1.83;;;2.00;99.90;;;;;;5097751;28;20128;-78
2022/04/02 06:20:51;;;;;;;4.83;1.87;;;2.00;99.90;;;;;;5098052;28;20831;-78
2022/04/02 06:23:18;;;;;;;3.50;1.90;;;2.10;99.90;;;;;;5109866;28;20388;-78
2022/04/02 06:25:43;;;;;;;;;;;2.10;99.90;;;;;;5130624;27;20048;-78
2022/04/02 06:28:09;;;;;;;5.18;1.85;;;2.10;99.90;;;;;;5130434;27;19921;-78
2022/04/02 06:30:35;;;;;;;3.33;1.70;;;2.10;99.90;;;;;;5108263;27;20486;-78
2022/04/02 06:33:01;;;;;;;3.65;1.85;;;2.20;99.90;;;;;;5133736;27;20046;-78
2022/04/02 06:35:28;;;;;;;3.05;1.75;;;2.30;99.90;;;;;;5132955;27;20031;-78
2022/04/02 06:37:54;;;;;;;3.20;1.90;;;2.30;99.90;;;;;;5133254;27;20073;-78
2022/04/02 06:40:21;;;;;;;;;;;2.30;99.90;;;;;;5133451;27;20186;-78
2022/04/02 06:42:47;;;;;;;3.15;1.73;;;2.30;99.90;;;;;;5115791;27;19915;-77
2022/04/02 06:45:13;;;;;;;6.60;1.90;;;2.40;99.90;;;;;;5120568;27;20039;-78
2022/04/02 06:47:39;;;;;;;4.78;2.17;;;2.50;99.90;;;;;;5101461;27;20131;-79
2022/04/02 06:50:08;;;;;;;4.32;1.85;;;2.40;99.90;;;;;;5132891;27;20753;-77
2022/04/02 06:52:33;;;;;;;4.28;1.83;;;2.60;99.90;;;;;;5114130;27;20048;-78
2022/04/02 06:55:00;;;;;;;5.18;2.10;;;2.80;99.90;;;;;;5112241;28;20047;-78
2022/04/02 06:57:26;;;;;;;3.67;1.73;;;3.00;99.90;;;;;;5118360;27;20491;-77
2022/04/02 06:59:52;;;;;;;4.00;1.60;;;3.00;99.90;;;;;;5120983;27;20075;-77
2022/04/02 07:02:18;;;;;;;3.88;2.13;;;3.10;99.90;;;;;;5130019;27;20550;-77
2022/04/02 07:04:44;;;;;;;2.88;1.60;;;3.00;99.90;;;;;;5111006;27;20035;-78
2022/04/02 07:07:10;;;;;;;5.25;1.95;;;3.00;99.90;;;;;;5100341;27;20115;-78
2022/04/02 07:09:36;;;;;;;4.88;1.83;;;2.90;99.90;;;;;;5106733;27;20115;-77
2022/04/02 07:12:01;;;;;;;3.65;2.00;;;2.90;99.90;;;;;;5128667;27;20031;-77
2022/04/02 07:14:28;;;;;;;4.05;1.90;;;2.80;99.90;;;;;;5123998;27;20047;-77
2022/04/02 07:16:54;;;;;;;3.90;1.70;;;2.80;99.90;;;;;;5101734;27;20039;-76
2022/04/02 07:19:25;;;;;;;2.33;1.58;;;2.70;99.90;;;;;;5131271;27;20042;-76
2022/04/02 07:21:54;;;;;;;3.22;1.70;;;2.60;99.90;;;;;;5114765;27;20044;-74
2022/04/02 07:24:21;;;;;;;5.68;1.75;;;2.50;99.90;;;;;;5118112;27;20050;-77
2022/04/02 07:26:48;;;;;;;3.97;1.33;;;2.50;99.90;;;;;;5130316;27;20103;-77
2022/04/02 07:29:15;;;;;;;3.40;1.40;;;2.40;99.90;;;;;;5108561;27;20039;-76
2022/04/02 07:31:44;;;;;;;2.00;1.27;;;2.30;99.90;;;;;;5123522;27;20038;-76
2022/04/02 07:34:11;;;;;;;2.10;1.20;;;2.20;99.90;;;;;;5131616;27;20062;-76
2022/04/02 07:37:05;;;;;;;2.45;1.33;;;2.20;99.90;;;;;;5127370;27;20042;-76
2022/04/02 07:39:42;;;;;;;2.50;1.40;;;2.20;99.90;;;;;;5126893;27;20082;-77
2022/04/02 07:42:22;;;;;;;4.45;1.38;;;2.30;99.90;;;;;;5129063;27;20051;-76
2022/04/02 07:45:01;;;;;;;3.92;1.23;;;2.40;99.90;;;;;;5113796;27;20118;-76
2022/04/02 07:47:33;;;;;;;2.45;1.45;;;2.50;99.90;;;;;;5108478;27;20054;-77
2022/04/02 07:50:06;;;;;;;2.28;1.23;;;2.60;99.90;;;;;;5126763;27;20047;-76
2022/04/02 07:52:33;;;;;;;1.83;1.20;;;2.50;99.90;;;;;;5124620;27;20043;-77
2022/04/02 07:55:04;;;;;;;3.28;1.10;;;2.60;99.90;;;;;;5125251;27;20429;-77
2022/04/02 07:57:44;;;;;;;2.80;1.10;;;2.70;99.90;;;;;;5127985;27;20043;-76
2022/04/02 08:00:12;;;;;;;2.30;1.08;;;2.90;99.90;;;;;;5129786;27;20043;-76
2022/04/02 08:02:43;;;;;;;2.97;1.35;;;3.10;99.90;;;;;;5135181;27;20051;-77
2022/04/02 08:05:14;;;;;;;2.28;1.00;;;3.20;99.90;;;;;;5124208;27;20095;-77
2022/04/02 08:07:52;;;;;;;3.95;1.48;;;3.50;99.90;;;;;;5133814;27;20058;-76
2022/04/02 08:10:19;;;;;;;1.95;1.30;;;3.80;99.90;;;;;;5102570;27;20034;-76
2022/04/02 08:12:46;;;;;;;2.60;1.30;;;4.20;99.90;;;;;;5122583;27;20042;-78
2022/04/02 08:15:16;;;;;;;4.40;1.55;;;4.40;99.90;;;;;;5128102;27;20039;-79
2022/04/02 08:17:44;;;;;;;3.35;1.45;;;4.60;99.90;;;;;;5125954;27;20084;-78
2022/04/02 08:20:11;;;;;;;2.17;1.23;;;4.70;99.90;;;;;;5126511;27;20081;-79
2022/04/02 08:22:37;;;;;;;4.43;1.30;;;4.90;99.90;;;;;;5116966;27;20064;-78
2022/04/02 08:25:04;;;;;;;3.03;1.50;;;5.10;99.90;;;;;;5128637;27;20043;-79
2022/04/02 08:27:38;;;;;;;2.72;1.35;;;5.30;99.90;;;;;;5134352;27;20724;-77
2022/04/02 08:30:11;;;;;;;2.45;1.40;;;5.50;99.90;;;;;;5117163;27;20042;-76
2022/04/02 08:32:52;;;;;;;1.98;1.30;;;5.80;99.90;;;;;;5134579;27;20398;-79
2022/04/02 08:35:29;;;;;;;3.30;1.48;;;5.80;99.90;;;;;;5124617;27;20516;-78
2022/04/02 08:38:07;;;;;;;;;;;5.90;99.90;;;;;;5120228;27;20058;-79
2022/04/02 08:41:09;;;;;;;3.95;1.45;;;5.90;99.90;;;;;;5118823;27;19920;-71
2022/04/02 08:44:04;;;;;;;1.73;1.02;;;6.10;99.90;;;;;;5141161;27;20034;-71
2022/04/02 08:46:56;;;;;;;3.47;1.30;;;6.20;99.90;;;;;;5127562;27;20046;-70
2022/04/02 08:49:39;;;;;;;4.63;1.30;;;6.30;99.90;;;;;;5119196;27;20051;-70
2022/04/02 08:52:14;;;;;;;1.85;1.20;;;6.20;99.90;;;;;;5111845;27;20031;-71
2022/04/02 08:54:50;;;;;;;3.80;1.33;;;6.30;99.90;;;;;;5127419;27;20110;-70
2022/04/02 08:57:30;;;;;;;3.53;1.13;;;6.50;99.90;;;;;;5120658;27;20054;-72
2022/04/02 09:00:08;;;;;;;3.80;1.52;;;6.50;97.80;;;;;;5099607;27;20039;-70
2022/04/02 09:02:56;;;;;;;3.08;1.13;;;6.60;97.60;;;;;;5116791;27;20039;-77
2022/04/02 09:05:46;;;;;;;2.63;1.02;;;6.70;97.90;;;;;;5101096;27;20122;-77
2022/04/02 09:08:30;;;;;;;4.75;1.50;;;6.90;98.10;;;;;;5136695;27;20121;-76
2022/04/02 09:11:11;;;;;;;3.83;1.20;;;7.00;96.40;;;;;;5131986;27;20042;-78
2022/04/02 09:13:45;;;;;;;4.75;1.88;;;6.90;94.90;;;;;;5132173;27;20090;-77
2022/04/02 09:16:28;;;;;;;2.85;1.08;;;6.70;94.60;;;;;;5123552;27;20074;-77
2022/04/02 09:19:19;;;;;;;5.45;1.65;;;6.60;93.60;;;;;;5134123;27;20062;-77
2022/04/02 09:22:03;;;;;;;2.22;1.00;;;6.60;92.80;;;;;;5128866;27;20043;-77
2022/04/02 09:25:00;;;;;;;2.33;1.20;;;6.70;92.70;;;;;;5106806;28;20131;-72
2022/04/02 09:28:03;;;;;;;3.63;1.10;;;6.70;92.60;;;;;;5100241;28;20040;-72
2022/04/02 09:30:59;;;;;;;5.80;1.25;;;6.50;93.20;;;;;;5105322;28;20130;-77
2022/04/02 09:33:35;;;;;;;5.10;1.98;;;6.20;92.70;;;;;;5090965;28;20391;-79
2022/04/02 09:36:29;;;;;;;3.40;1.30;;;6.20;92.00;;;;;;5077029;28;20040;-78
2022/04/02 09:39:16;;;;;;;2.35;1.00;;;6.10;91.80;;;;;;5098056;28;20066;-77
2022/04/02 09:41:58;;;;;;;3.47;1.50;;;5.90;92.60;;;;;;5095016;28;20059;-78
2022/04/02 09:44:51;;;;;;;4.80;1.25;;;6.00;92.80;;;;;;5096870;28;20038;-80
2022/04/02 09:47:50;;;;;;;3.90;1.10;;;6.10;92.70;;;;;;5102850;28;20042;-81
2022/04/02 09:50:22;;;;;;;3.40;1.13;;;6.00;92.60;;;;;;5103866;28;20043;-80
2022/04/02 09:52:55;;;;;;;2.88;1.17;;;6.10;93.50;;;;;;5104036;28;20044;-81
2022/04/02 09:55:23;;;;;;;5.00;1.40;;;6.10;93.00;;;;;;5110967;28;20081;-79
2022/04/02 09:58:19;;;;;;;4.00;1.30;;;6.20;93.30;;;;;;5114991;28;20051;-79
2022/04/02 10:01:08;;;;;;;2.78;1.05;;;6.60;93.30;;;;;;5114519;28;20062;-79
2022/04/02 10:04:19;;;;;;;4.28;1.27;;;7.00;92.70;;;;;;5113894;28;20109;-79
2022/04/02 10:06:49;;;;;;;3.67;1.40;;;7.10;91.30;;;;;;5111870;28;20092;-78
2022/04/02 10:09:18;;;;;;;3.28;1.25;;;7.00;91.50;;;;;;5114092;28;20108;-78
2022/04/02 10:12:00;;;;;;;4.05;1.52;;;6.90;92.10;;;;;;5096816;28;20079;-79
2022/04/02 10:14:28;;;;;;;3.10;1.10;;;7.10;92.60;;;;;;5113757;28;20048;-79
2022/04/02 10:17:01;;;;;;;1.48;0.80;;;7.10;91.70;;;;;;5113370;28;20526;-78
2022/04/02 10:19:34;;;;;;;2.25;0.90;;;7.10;91.30;;;;;;5112984;28;20073;-80
2022/04/02 10:22:11;;;;;;;3.40;1.25;;;7.00;91.40;;;;;;5114627;27;20035;-78
2022/04/02 10:24:50;;;;;;;4.63;1.20;;;6.70;91.50;;;;;;5135714;27;20046;-79
2022/04/02 10:27:25;;;;;;;3.85;1.25;;;6.90;91.90;;;;;;5119006;27;20034;-79
2022/04/02 10:29:57;;;;;;;2.47;1.15;;;7.10;90.50;;;;;;5117664;27;20035;-79
2022/04/02 10:32:45;;;;;;;3.58;1.13;;;7.20;91.10;;;;;;5135834;27;20054;-78
2022/04/02 10:35:13;;;;;;;2.75;1.10;;;7.20;90.70;;;;;;5135506;27;20055;-78
2022/04/02 10:38:08;;;;;;;3.17;1.30;;;7.30;90.60;;;;;;5135585;27;20048;-78
2022/04/02 10:40:50;;;;;;;3.65;1.00;;;7.30;88.50;;;;;;5135740;27;20113;-78
2022/04/02 10:43:27;;;;;;;3.00;1.17;;;7.10;88.80;;;;;;5135661;27;20102;-79
2022/04/02 10:45:54;;;;;;;3.88;1.30;;;7.20;89.50;;;;;;5135493;27;20050;-79
2022/04/02 10:48:52;;;;;;;2.83;1.20;;;7.50;88.60;;;;;;5154027;27;20042;-78
2022/04/02 10:51:23;;;;;;;2.92;1.15;;;7.40;88.00;;;;;;5129348;27;20485;-80
2022/04/02 10:54:13;;;;;;;3.00;1.15;;;7.10;88.90;;;;;;5135654;27;20034;-79
2022/04/02 10:56:44;;;;;;;2.13;1.10;;;7.10;90.00;;;;;;5135146;27;20047;-79
2022/04/02 10:59:12;;;;;;;3.63;0.90;;;7.40;89.60;;;;;;5134946;27;20107;-79
2022/04/02 11:01:42;;;;;;;1.80;1.00;;;8.00;89.70;;;;;;5135230;27;20098;-79
2022/04/02 11:04:31;;;;;;;4.32;1.15;;;8.70;88.80;;;;;;5153873;27;20511;-78
2022/04/02 11:06:58;;;;;;;2.22;1.05;;;8.80;82.00;;;;;;5118286;27;20438;-79
2022/04/02 11:09:34;;;;;;;2.53;1.10;;;9.20;80.70;;;;;;5135349;27;20070;-78
2022/04/02 11:12:14;;;;;;;2.10;1.20;;;9.00;78.50;;;;;;5134790;27;20100;-79
2022/04/02 11:14:45;;;;;;;4.28;1.27;;;8.50;77.60;;;;;;5134492;27;20102;-79
2022/04/02 11:17:29;;;;;;;2.97;1.10;;;7.80;77.70;;;;;;5134999;27;20085;-79
2022/04/02 11:20:20;;;;;;;3.25;1.20;;;7.30;79.30;;;;;;5134654;27;20057;-77
2022/04/02 11:22:52;;;;;;;2.88;1.10;;;7.10;82.80;;;;;;5134507;27;20580;-78
2022/04/02 11:25:22;;;;;;;2.38;0.95;;;6.90;82.10;;;;;;5116215;27;20053;-78
2022/04/02 11:27:56;;;;;;;2.80;1.10;;;7.00;83.10;;;;;;5134575;27;20034;-79
2022/04/02 11:30:30;;;;;;;1.95;1.00;;;7.60;83.20;;;;;;5134801;27;20110;-78
2022/04/02 11:33:30;;;;;;;4.55;1.20;;;8.20;83.20;;;;;;5134673;27;20091;-80
2022/04/02 11:36:09;;;;;;;2.22;1.20;;;8.90;80.00;;;;;;5133565;27;20058;-79
2022/04/02 11:39:01;;;;;;;2.58;1.10;;;9.00;76.40;;;;;;5134927;27;20050;-77
2022/04/02 11:41:33;;;;;;;4.00;1.00;;;8.30;78.50;;;;;;5134551;27;20103;-79
2022/04/02 11:44:08;;;;;;;3.30;1.20;;;8.00;80.30;;;;;;5134386;27;20047;-79
2022/04/02 11:47:00;;;;;;;2.80;1.10;;;7.80;81.20;;;;;;5117312;27;20038;-78
2022/04/02 11:49:43;;;;;;;2.08;1.00;;;7.40;79.50;;;;;;5134297;27;20042;-78
2022/04/02 11:52:13;;;;;;;5.97;1.20;;;7.10;79.70;;;;;;5134842;27;20038;-80
2022/04/02 11:54:48;;;;;;;2.92;1.00;;;7.00;81.00;;;;;;5134493;27;20047;-79
2022/04/02 11:57:15;;;;;;;2.20;1.10;;;6.80;80.20;;;;;;5134324;27;20091;-79
2022/04/02 11:59:52;;;;;;;4.22;1.08;;;7.00;83.00;;;;;;5117684;27;20118;-79
2022/04/02 12:02:37;;;;;;;3.20;1.60;;;6.90;89.50;;;;;;5134496;27;20043;-78
2022/04/02 12:05:06;;;;;;;3.30;1.42;;;7.20;91.10;;;;;;5117054;27;20391;-70
2022/04/02 12:07:45;;;;;;;4.30;1.20;;;7.60;90.70;;;;;;5116861;27;20125;-70
2022/04/02 12:10:16;;;;;;;4.55;1.15;;;7.70;90.70;;;;;;5133063;27;20477;-71
2022/04/02 12:12:47;;;;;;;3.30;1.27;;;7.60;90.30;;;;;;5117910;27;20085;-70
2022/04/02 12:15:15;;;;;;;2.38;1.02;;;7.40;90.30;;;;;;5137556;27;20546;-70
2022/04/02 12:17:51;;;;;;;2.28;1.20;;;7.20;89.70;;;;;;5137172;27;20103;-70
2022/04/02 12:20:30;;;;;;;4.43;1.08;;;7.30;89.20;;;;;;5137753;27;20046;-69
2022/04/02 12:23:18;;;;;;;4.63;0.90;;;7.20;82.70;;;;;;5134548;27;20062;-70
2022/04/02 12:25:56;;;;;;;2.30;1.27;;;7.00;86.00;;;;;;5118648;27;20413;-70
2022/04/02 12:28:23;;;;;;;2.85;1.10;;;7.00;86.20;;;;;;5136083;27;20051;-71
2022/04/02 12:30:51;;;;;;;1.88;1.10;;;6.90;83.80;;;;;;5134466;27;20077;-70
2022/04/02 12:33:21;;;;;;;4.88;1.70;;;6.80;84.60;;;;;;5134521;27;20059;-71
2022/04/02 12:35:57;;;;;;;3.78;1.23;;;6.80;86.30;;;;;;5134509;27;20149;-70
2022/04/02 12:38:41;;;;;;;2.90;1.20;;;6.80;86.70;;;;;;5134208;27;20043;-70
2022/04/02 12:41:19;;;;;;;2.22;1.20;;;6.80;86.50;;;;;;5134438;27;20050;-70
2022/04/02 12:43:48;;;;;;;4.43;1.85;;;6.80;87.10;;;;;;5134477;27;20073;-70
2022/04/02 12:46:25;;;;;;;2.33;1.27;;;6.70;86.70;;;;;;5132395;27;20137;-70
2022/04/02 12:48:51;;;;;;;4.47;1.20;;;6.60;86.60;;;;;;5134237;27;20061;-70
2022/04/02 12:51:18;;;;;;;1.83;1.20;;;6.40;86.20;;;;;;5134425;27;20047;-70
2022/04/02 12:53:46;;;;;;;2.85;1.17;;;6.70;87.50;;;;;;5133921;27;20051;-70
2022/04/02 12:56:23;;;;;;;3.67;1.27;;;6.60;86.40;;;;;;5134203;27;20039;-70
2022/04/02 12:58:50;;;;;;;1.77;0.90;;;6.90;87.70;;;;;;5133994;27;20386;-70
2022/04/02 13:01:26;;;;;;;3.97;1.10;;;7.80;87.60;;;;;;5134161;27;20047;-71
2022/04/02 13:04:01;;;;;;;2.90;1.10;;;8.30;80.00;;;;;;5133601;27;20164;-71
2022/04/02 13:06:30;;;;;;;4.90;1.23;;;8.40;78.10;;;;;;5133871;27;20062;-71
2022/04/02 13:09:03;;;;;;;3.28;1.20;;;8.50;78.00;;;;;;5133639;27;20156;-70
2022/04/02 13:11:53;;;;;;;1.67;1.10;;;8.50;79.50;;;;;;5133554;27;20058;-71
2022/04/02 13:14:35;;;;;;;3.97;1.20;;;8.30;76.70;;;;;;5116352;27;20577;-70
2022/04/02 13:17:13;;;;;;;1.73;0.90;;;8.30;77.30;;;;;;5113224;28;20096;-70
2022/04/02 13:22:48;;;;;;;5.38;1.77;;;8.20;75.40;;;;;;5112018;28;20066;-71
2022/04/02 13:25:22;;;;;;;2.08;1.15;;;8.30;76.60;;;;;;5112904;28;20100;-71
2022/04/02 13:28:06;;;;;;;1.40;0.95;;;8.60;75.20;;;;;;5112923;28;20040;-71